Asau, Samoa

7:12 PM WSDT on October 23, 2014 (GMT +1400)
Faleolo International | Change Station
CLOSE
Current Station
Airport
Location: Faleolo,
Elevation: 5 m
Nearby Weather Stations

Elev 5 m 13.83 °S, 172.01 °W | Updated 1 hour ago

Overcast
Overcast
29 °C
Feels Like 34 °C
N
6
Wind Variable Wind from SSW

Today
High -- | Low -- °C
--% Chance of Precip.
Yesterday
High -- | Low -- °C
Precip. -- mm
7:00 AM 7:29 PM
Waning Crescent, 1% visible
Pressure 1010 hPa
Visibility 10.0 kilometers
Clouds Few 548 m
Scattered Clouds 1280 m
Overcast 3048 m
Heat Index 34 °C
Dew Point 24 °C
Humidity 74%
Rainfall 0.0 mm
Snow Depth Not available.
UV 0 out of 12
Pollen Not available.
Air Quality Not available.
Flu Activity Not available.
METAR NSFA 230400Z COR 20003KT 9999 FEW018 SCT042 OVC100 29/24 Q1010

More Conditions Fewer Conditions

Pressure 1010 hPa
Visibility 10.0 kilometers
Clouds Few 548 m
Scattered Clouds 1280 m
Overcast 3048 m
Heat Index 34 °C
Dew Point 24 °C
Humidity 74%
Rainfall 0.0 mm
Snow Depth Not available.
UV 0 out of 12
Pollen Not available.
Air Quality Not available.
Flu Activity Not available.
METAR NSFA 230400Z COR 20003KT 9999 FEW018 SCT042 OVC100 29/24 Q1010

More Conditions Fewer Conditions

10-Day Weather Forecast

Almanac

Astronomy

Oct. 23, 2014 Rise Set
Actual Time 7:00 AM WSDT 7:29 PM WSDT
Civil Twilight 6:38 AM WSDT 7:51 PM WSDT
Nautical Twilight 6:12 AM WSDT 8:16 PM WSDT
Astronomical Twilight 5:47 AM WSDT 8:42 PM WSDT
Moon 6:15 AM WSDT 6:51 PM WSDT
Length of Visible Light 13h 13m
Length of Day
12h 29m
Tomorrow will be 0m 44s longer.
Waning Crescent, 1% of the Moon is Illuminated
Today
Waning Crescent
Oct 23
New
Oct 30
First Quarter
Nov 6
Full
Nov 14
Last Quarter

Yesterday's Extremes

Country Highs Country Lows

Community

WunderPhotos

Upload Photos

1,764,170 photos uploaded!

Nearby

Snow Depth

Not available.

Earthquake Activity

City Distance Mag. Time & Date
No recent earthquake activity has been reported nearby.
Minimum magnitude displayed is 2.5.

Coastal Water Temperatures

Place Temperature
No Stations Reporting

Nearby Weather Stations